sensor_id;sensor_type;location;lat;lon;timestamp;P1;durP1;ratioP1;P2;durP2;ratioP2
30934;SDS011;51033;42.648;23.292;2023-06-01T00:00:42;11.10;;;6.35;;
30934;SDS011;51033;42.648;23.292;2023-06-01T00:03:09;11.52;;;6.55;;
30934;SDS011;51033;42.648;23.292;2023-06-01T00:05:34;9.02;;;5.93;;
30934;SDS011;51033;42.648;23.292;2023-06-01T00:08:00;7.13;;;5.68;;
30934;SDS011;51033;42.648;23.292;2023-06-01T00:10:25;10.10;;;6.55;;
30934;SDS011;51033;42.648;23.292;2023-06-01T00:12:50;11.85;;;5.43;;
30934;SDS011;51033;42.648;23.292;2023-06-01T00:15:16;6.28;;;5.65;;
30934;SDS011;51033;42.648;23.292;2023-06-01T00:17:41;10.52;;;7.10;;
30934;SDS011;51033;42.648;23.292;2023-06-01T00:20:07;7.68;;;5.68;;
30934;SDS011;51033;42.648;23.292;2023-06-01T00:22:33;6.85;;;4.93;;
30934;SDS011;51033;42.648;23.292;2023-06-01T00:25:03;9.10;;;6.30;;
30934;SDS011;51033;42.648;23.292;2023-06-01T00:27:31;7.00;;;6.03;;
30934;SDS011;51033;42.648;23.292;2023-06-01T00:29:56;12.50;;;6.05;;
30934;SDS011;51033;42.648;23.292;2023-06-01T00:32:21;7.90;;;6.25;;
30934;SDS011;51033;42.648;23.292;2023-06-01T00:34:47;7.03;;;5.97;;
30934;SDS011;51033;42.648;23.292;2023-06-01T00:37:12;11.52;;;5.32;;
30934;SDS011;51033;42.648;23.292;2023-06-01T00:39:37;9.23;;;6.55;;
30934;SDS011;51033;42.648;23.292;2023-06-01T00:42:03;9.57;;;6.10;;
30934;SDS011;51033;42.648;23.292;2023-06-01T00:44:29;10.07;;;5.63;;
30934;SDS011;51033;42.648;23.292;2023-06-01T00:46:54;9.77;;;5.53;;
30934;SDS011;51033;42.648;23.292;2023-06-01T00:49:20;8.38;;;6.05;;
30934;SDS011;51033;42.648;23.292;2023-06-01T00:51:45;11.60;;;6.65;;
30934;SDS011;51033;42.648;23.292;2023-06-01T00:54:10;11.32;;;6.30;;
30934;SDS011;51033;42.648;23.292;2023-06-01T00:56:36;8.55;;;6.55;;
30934;SDS011;51033;42.648;23.292;2023-06-01T00:59:02;7.10;;;5.45;;
30934;SDS011;51033;42.648;23.292;2023-06-01T01:01:28;8.93;;;7.18;;
30934;SDS011;51033;42.648;23.292;2023-06-01T01:03:53;10.07;;;6.53;;
30934;SDS011;51033;42.648;23.292;2023-06-01T01:09:43;11.13;;;7.35;;
30934;SDS011;51033;42.648;23.292;2023-06-01T01:12:18;10.48;;;6.28;;
30934;SDS011;51033;42.648;23.292;2023-06-01T01:17:38;8.25;;;6.00;;
30934;SDS011;51033;42.648;23.292;2023-06-01T01:20:27;7.85;;;6.10;;
30934;SDS011;51033;42.648;23.292;2023-06-01T01:23:35;9.55;;;6.60;;
30934;SDS011;51033;42.648;23.292;2023-06-01T01:28:46;11.55;;;7.10;;
30934;SDS011;51033;42.648;23.292;2023-06-01T01:31:24;8.63;;;6.75;;
30934;SDS011;51033;42.648;23.292;2023-06-01T01:33:53;8.35;;;7.07;;
30934;SDS011;51033;42.648;23.292;2023-06-01T01:36:20;10.20;;;6.20;;
30934;SDS011;51033;42.648;23.292;2023-06-01T01:38:47;9.20;;;7.43;;
30934;SDS011;51033;42.648;23.292;2023-06-01T01:41:13;7.85;;;5.82;;
30934;SDS011;51033;42.648;23.292;2023-06-01T01:43:38;11.95;;;6.35;;
30934;SDS011;51033;42.648;23.292;2023-06-01T01:54:15;7.88;;;5.78;;
30934;SDS011;51033;42.648;23.292;2023-06-01T01:56:42;8.93;;;6.95;;
30934;SDS011;51033;42.648;23.292;2023-06-01T01:59:09;11.07;;;6.65;;
30934;SDS011;51033;42.648;23.292;2023-06-01T02:01:36;8.88;;;6.07;;
30934;SDS011;51033;42.648;23.292;2023-06-01T02:04:05;8.45;;;6.20;;
30934;SDS011;51033;42.648;23.292;2023-06-01T02:06:32;9.45;;;6.57;;
30934;SDS011;51033;42.648;23.292;2023-06-01T02:08:58;9.00;;;6.40;;
30934;SDS011;51033;42.648;23.292;2023-06-01T02:11:23;8.50;;;6.43;;
30934;SDS011;51033;42.648;23.292;2023-06-01T02:13:50;15.68;;;6.55;;
30934;SDS011;51033;42.648;23.292;2023-06-01T02:16:15;9.13;;;6.00;;
30934;SDS011;51033;42.648;23.292;2023-06-01T02:18:42;10.77;;;6.18;;
30934;SDS011;51033;42.648;23.292;2023-06-01T02:21:13;10.57;;;6.05;;
30934;SDS011;51033;42.648;23.292;2023-06-01T02:23:40;9.85;;;7.03;;
30934;SDS011;51033;42.648;23.292;2023-06-01T02:26:07;8.93;;;6.47;;
30934;SDS011;51033;42.648;23.292;2023-06-01T02:28:33;10.20;;;6.60;;
30934;SDS011;51033;42.648;23.292;2023-06-01T02:31:01;10.05;;;6.30;;
30934;SDS011;51033;42.648;23.292;2023-06-01T02:33:27;13.48;;;6.28;;
30934;SDS011;51033;42.648;23.292;2023-06-01T02:35:53;7.53;;;6.28;;
30934;SDS011;51033;42.648;23.292;2023-06-01T02:38:18;13.00;;;6.72;;
30934;SDS011;51033;42.648;23.292;2023-06-01T02:40:44;9.63;;;6.28;;
30934;SDS011;51033;42.648;23.292;2023-06-01T02:43:10;7.40;;;5.97;;
30934;SDS011;51033;42.648;23.292;2023-06-01T02:45:35;12.25;;;5.75;;
30934;SDS011;51033;42.648;23.292;2023-06-01T02:48:01;10.35;;;5.78;;
30934;SDS011;51033;42.648;23.292;2023-06-01T02:50:26;11.85;;;7.18;;
30934;SDS011;51033;42.648;23.292;2023-06-01T02:52:52;10.90;;;6.72;;
30934;SDS011;51033;42.648;23.292;2023-06-01T02:55:17;10.98;;;6.82;;
30934;SDS011;51033;42.648;23.292;2023-06-01T02:57:42;8.38;;;6.57;;
30934;SDS011;51033;42.648;23.292;2023-06-01T03:00:08;10.38;;;6.18;;
30934;SDS011;51033;42.648;23.292;2023-06-01T03:02:41;9.77;;;6.95;;
30934;SDS011;51033;42.648;23.292;2023-06-01T03:05:07;9.10;;;6.35;;
30934;SDS011;51033;42.648;23.292;2023-06-01T03:07:33;7.05;;;6.20;;
30934;SDS011;51033;42.648;23.292;2023-06-01T03:09:59;8.45;;;6.55;;
30934;SDS011;51033;42.648;23.292;2023-06-01T03:12:24;8.38;;;6.13;;
30934;SDS011;51033;42.648;23.292;2023-06-01T03:14:50;12.68;;;6.90;;
30934;SDS011;51033;42.648;23.292;2023-06-01T03:17:15;9.70;;;6.40;;
30934;SDS011;51033;42.648;23.292;2023-06-01T03:19:41;12.07;;;6.40;;
30934;SDS011;51033;42.648;23.292;2023-06-01T03:22:07;10.27;;;6.53;;
30934;SDS011;51033;42.648;23.292;2023-06-01T03:24:33;7.85;;;6.05;;
30934;SDS011;51033;42.648;23.292;2023-06-01T03:26:59;8.90;;;6.22;;
30934;SDS011;51033;42.648;23.292;2023-06-01T03:29:26;10.77;;;7.05;;
30934;SDS011;51033;42.648;23.292;2023-06-01T03:31:51;10.20;;;6.88;;
30934;SDS011;51033;42.648;23.292;2023-06-01T03:34:17;9.98;;;6.95;;
30934;SDS011;51033;42.648;23.292;2023-06-01T03:36:42;12.07;;;6.60;;
30934;SDS011;51033;42.648;23.292;2023-06-01T03:39:13;7.85;;;6.18;;
30934;SDS011;51033;42.648;23.292;2023-06-01T03:41:41;11.15;;;6.55;;
30934;SDS011;51033;42.648;23.292;2023-06-01T03:44:07;9.10;;;6.68;;
30934;SDS011;51033;42.648;23.292;2023-06-01T03:46:32;9.60;;;6.65;;
30934;SDS011;51033;42.648;23.292;2023-06-01T03:48:58;7.43;;;6.60;;
30934;SDS011;51033;42.648;23.292;2023-06-01T03:51:23;9.20;;;6.93;;
30934;SDS011;51033;42.648;23.292;2023-06-01T03:53:49;10.98;;;7.28;;
30934;SDS011;51033;42.648;23.292;2023-06-01T03:56:14;9.25;;;7.38;;
30934;SDS011;51033;42.648;23.292;2023-06-01T03:58:40;15.27;;;9.18;;
30934;SDS011;51033;42.648;23.292;2023-06-01T04:01:06;10.50;;;8.65;;
30934;SDS011;51033;42.648;23.292;2023-06-01T04:03:31;14.18;;;9.27;;
30934;SDS011;51033;42.648;23.292;2023-06-01T04:05:57;12.88;;;9.85;;
30934;SDS011;51033;42.648;23.292;2023-06-01T04:08:26;15.73;;;10.07;;
30934;SDS011;51033;42.648;23.292;2023-06-01T04:10:52;11.75;;;8.88;;
30934;SDS011;51033;42.648;23.292;2023-06-01T04:13:17;12.02;;;8.90;;
30934;SDS011;51033;42.648;23.292;2023-06-01T04:15:43;12.48;;;9.07;;
30934;SDS011;51033;42.648;23.292;2023-06-01T04:18:12;15.38;;;8.48;;
30934;SDS011;51033;42.648;23.292;2023-06-01T04:20:37;11.07;;;9.38;;
30934;SDS011;51033;42.648;23.292;2023-06-01T04:23:02;10.30;;;7.85;;
30934;SDS011;51033;42.648;23.292;2023-06-01T04:25:28;11.23;;;9.30;;
30934;SDS011;51033;42.648;23.292;2023-06-01T04:27:55;11.57;;;9.10;;
30934;SDS011;51033;42.648;23.292;2023-06-01T04:30:20;14.25;;;9.70;;
30934;SDS011;51033;42.648;23.292;2023-06-01T04:32:47;17.13;;;10.35;;
30934;SDS011;51033;42.648;23.292;2023-06-01T04:35:13;20.23;;;10.00;;
30934;SDS011;51033;42.648;23.292;2023-06-01T04:37:39;16.48;;;12.00;;
30934;SDS011;51033;42.648;23.292;2023-06-01T04:40:06;23.73;;;10.88;;
30934;SDS011;51033;42.648;23.292;2023-06-01T04:42:40;16.55;;;9.90;;
30934;SDS011;51033;42.648;23.292;2023-06-01T04:45:10;18.98;;;9.88;;
30934;SDS011;51033;42.648;23.292;2023-06-01T04:47:35;18.05;;;11.07;;
30934;SDS011;51033;42.648;23.292;2023-06-01T04:50:10;21.83;;;10.30;;
30934;SDS011;51033;42.648;23.292;2023-06-01T04:52:37;30.83;;;12.40;;
30934;SDS011;51033;42.648;23.292;2023-06-01T04:55:03;15.68;;;10.63;;
30934;SDS011;51033;42.648;23.292;2023-06-01T04:57:30;18.77;;;11.68;;
30934;SDS011;51033;42.648;23.292;2023-06-01T04:59:56;21.70;;;10.57;;
30934;SDS011;51033;42.648;23.292;2023-06-01T05:02:22;19.38;;;11.52;;
30934;SDS011;51033;42.648;23.292;2023-06-01T05:04:49;15.55;;;10.73;;
30934;SDS011;51033;42.648;23.292;2023-06-01T05:07:15;19.15;;;10.50;;
30934;SDS011;51033;42.648;23.292;2023-06-01T05:09:40;18.73;;;11.57;;
30934;SDS011;51033;42.648;23.292;2023-06-01T05:12:06;21.45;;;11.55;;
30934;SDS011;51033;42.648;23.292;2023-06-01T05:14:32;15.98;;;11.68;;
30934;SDS011;51033;42.648;23.292;2023-06-01T05:16:57;14.98;;;11.02;;
30934;SDS011;51033;42.648;23.292;2023-06-01T05:19:23;21.92;;;12.38;;
30934;SDS011;51033;42.648;23.292;2023-06-01T05:21:48;19.98;;;11.10;;
30934;SDS011;51033;42.648;23.292;2023-06-01T05:24:13;15.25;;;11.30;;
30934;SDS011;51033;42.648;23.292;2023-06-01T05:26:39;20.50;;;12.05;;
30934;SDS011;51033;42.648;23.292;2023-06-01T05:29:05;17.42;;;13.13;;
30934;SDS011;51033;42.648;23.292;2023-06-01T05:31:30;19.13;;;13.10;;
30934;SDS011;51033;42.648;23.292;2023-06-01T05:33:56;19.25;;;12.43;;
30934;SDS011;51033;42.648;23.292;2023-06-01T05:36:22;19.35;;;14.05;;
30934;SDS011;51033;42.648;23.292;2023-06-01T05:38:47;19.25;;;12.90;;
30934;SDS011;51033;42.648;23.292;2023-06-01T05:41:13;22.70;;;14.13;;
30934;SDS011;51033;42.648;23.292;2023-06-01T05:43:38;18.50;;;15.80;;
30934;SDS011;51033;42.648;23.292;2023-06-01T05:46:03;18.83;;;13.13;;
30934;SDS011;51033;42.648;23.292;2023-06-01T05:48:29;17.77;;;13.52;;
30934;SDS011;51033;42.648;23.292;2023-06-01T05:50:55;15.88;;;12.48;;
30934;SDS011;51033;42.648;23.292;2023-06-01T05:53:20;18.80;;;12.98;;
30934;SDS011;51033;42.648;23.292;2023-06-01T05:55:49;19.77;;;13.10;;
30934;SDS011;51033;42.648;23.292;2023-06-01T05:58:16;27.08;;;15.10;;
30934;SDS011;51033;42.648;23.292;2023-06-01T06:00:42;21.00;;;14.23;;
30934;SDS011;51033;42.648;23.292;2023-06-01T06:03:07;17.45;;;12.90;;
30934;SDS011;51033;42.648;23.292;2023-06-01T06:05:33;15.70;;;13.18;;
30934;SDS011;51033;42.648;23.292;2023-06-01T06:07:58;17.45;;;12.55;;
30934;SDS011;51033;42.648;23.292;2023-06-01T06:10:24;16.55;;;14.38;;
30934;SDS011;51033;42.648;23.292;2023-06-01T06:12:49;24.65;;;14.20;;
30934;SDS011;51033;42.648;23.292;2023-06-01T06:15:15;17.05;;;13.23;;
30934;SDS011;51033;42.648;23.292;2023-06-01T06:17:42;17.80;;;14.05;;
30934;SDS011;51033;42.648;23.292;2023-06-01T06:20:07;19.33;;;14.20;;
30934;SDS011;51033;42.648;23.292;2023-06-01T06:22:34;19.30;;;14.20;;
30934;SDS011;51033;42.648;23.292;2023-06-01T06:24:59;19.67;;;14.15;;
30934;SDS011;51033;42.648;23.292;2023-06-01T06:27:25;16.73;;;14.48;;
30934;SDS011;51033;42.648;23.292;2023-06-01T06:29:51;20.92;;;14.85;;
30934;SDS011;51033;42.648;23.292;2023-06-01T06:32:16;20.13;;;14.85;;
30934;SDS011;51033;42.648;23.292;2023-06-01T06:34:44;22.50;;;13.52;;
30934;SDS011;51033;42.648;23.292;2023-06-01T06:37:10;20.25;;;15.45;;
30934;SDS011;51033;42.648;23.292;2023-06-01T06:39:36;22.15;;;16.70;;
30934;SDS011;51033;42.648;23.292;2023-06-01T06:42:02;21.80;;;15.15;;
30934;SDS011;51033;42.648;23.292;2023-06-01T06:44:28;24.40;;;16.25;;
30934;SDS011;51033;42.648;23.292;2023-06-01T08:27:32;23.05;;;16.25;;
30934;SDS011;51033;42.648;23.292;2023-06-01T08:29:58;22.00;;;16.30;;
30934;SDS011;51033;42.648;23.292;2023-06-01T08:32:23;21.40;;;16.73;;
30934;SDS011;51033;42.648;23.292;2023-06-01T08:34:49;22.17;;;15.63;;
30934;SDS011;51033;42.648;23.292;2023-06-01T08:37:15;21.23;;;16.42;;
30934;SDS011;51033;42.648;23.292;2023-06-01T08:39:40;22.63;;;16.08;;
30934;SDS011;51033;42.648;23.292;2023-06-01T08:42:20;23.88;;;17.45;;
30934;SDS011;51033;42.648;23.292;2023-06-01T08:44:53;19.83;;;15.05;;
30934;SDS011;51033;42.648;23.292;2023-06-01T08:47:20;26.20;;;16.95;;
30934;SDS011;51033;42.648;23.292;2023-06-01T08:49:49;20.67;;;16.08;;
30934;SDS011;51033;42.648;23.292;2023-06-01T08:52:18;22.77;;;16.05;;
30934;SDS011;51033;42.648;23.292;2023-06-01T08:54:45;21.83;;;16.02;;
30934;SDS011;51033;42.648;23.292;2023-06-01T08:57:11;20.92;;;15.07;;
30934;SDS011;51033;42.648;23.292;2023-06-01T08:59:38;28.73;;;15.70;;
30934;SDS011;51033;42.648;23.292;2023-06-01T09:02:04;19.77;;;15.93;;
30934;SDS011;51033;42.648;23.292;2023-06-01T09:04:31;23.10;;;15.05;;
30934;SDS011;51033;42.648;23.292;2023-06-01T09:06:59;19.42;;;15.10;;
30934;SDS011;51033;42.648;23.292;2023-06-01T09:09:24;20.73;;;14.30;;
30934;SDS011;51033;42.648;23.292;2023-06-01T09:12:14;19.75;;;13.45;;
30934;SDS011;51033;42.648;23.292;2023-06-01T09:14:49;19.92;;;13.73;;
30934;SDS011;51033;42.648;23.292;2023-06-01T09:17:22;16.75;;;12.45;;
30934;SDS011;51033;42.648;23.292;2023-06-01T09:19:53;21.92;;;13.32;;
30934;SDS011;51033;42.648;23.292;2023-06-01T09:22:20;18.55;;;12.27;;
30934;SDS011;51033;42.648;23.292;2023-06-01T09:24:58;23.08;;;14.48;;
30934;SDS011;51033;42.648;23.292;2023-06-01T09:27:25;19.42;;;12.20;;
30934;SDS011;51033;42.648;23.292;2023-06-01T09:29:54;18.83;;;14.93;;
30934;SDS011;51033;42.648;23.292;2023-06-01T09:32:21;18.95;;;12.90;;
30934;SDS011;51033;42.648;23.292;2023-06-01T09:34:47;16.85;;;10.70;;
30934;SDS011;51033;42.648;23.292;2023-06-01T09:37:14;13.15;;;9.68;;
30934;SDS011;51033;42.648;23.292;2023-06-01T09:39:40;14.05;;;10.43;;
30934;SDS011;51033;42.648;23.292;2023-06-01T09:42:05;15.27;;;10.73;;
30934;SDS011;51033;42.648;23.292;2023-06-01T09:47:07;14.52;;;10.38;;
30934;SDS011;51033;42.648;23.292;2023-06-01T09:49:41;6.50;;;5.25;;
30934;SDS011;51033;42.648;23.292;2023-06-01T09:52:09;7.78;;;5.07;;
30934;SDS011;51033;42.648;23.292;2023-06-01T09:54:37;8.05;;;4.13;;
30934;SDS011;51033;42.648;23.292;2023-06-01T09:57:05;10.68;;;5.20;;
30934;SDS011;51033;42.648;23.292;2023-06-01T09:59:44;6.60;;;4.78;;
30934;SDS011;51033;42.648;23.292;2023-06-01T10:02:12;5.75;;;4.60;;
30934;SDS011;51033;42.648;23.292;2023-06-01T10:04:48;7.38;;;4.38;;
30934;SDS011;51033;42.648;23.292;2023-06-01T10:07:15;12.45;;;5.38;;
30934;SDS011;51033;42.648;23.292;2023-06-01T10:09:43;6.70;;;4.50;;
30934;SDS011;51033;42.648;23.292;2023-06-01T10:12:10;4.97;;;4.07;;
30934;SDS011;51033;42.648;23.292;2023-06-01T10:14:37;8.30;;;4.95;;
30934;SDS011;51033;42.648;23.292;2023-06-01T10:17:03;7.78;;;5.20;;
30934;SDS011;51033;42.648;23.292;2023-06-01T10:19:29;6.25;;;4.47;;
30934;SDS011;51033;42.648;23.292;2023-06-01T10:21:59;9.23;;;4.60;;
30934;SDS011;51033;42.648;23.292;2023-06-01T10:24:25;5.10;;;4.00;;
30934;SDS011;51033;42.648;23.292;2023-06-01T10:29:17;5.88;;;4.00;;
30934;SDS011;51033;42.648;23.292;2023-06-01T10:31:43;7.47;;;4.38;;
30934;SDS011;51033;42.648;23.292;2023-06-01T10:34:10;6.80;;;4.35;;
30934;SDS011;51033;42.648;23.292;2023-06-01T10:39:24;8.48;;;4.47;;
30934;SDS011;51033;42.648;23.292;2023-06-01T10:41:50;7.95;;;4.80;;
30934;SDS011;51033;42.648;23.292;2023-06-01T10:52:25;6.50;;;4.70;;
30934;SDS011;51033;42.648;23.292;2023-06-01T10:54:52;7.03;;;5.28;;
30934;SDS011;51033;42.648;23.292;2023-06-01T11:02:48;7.05;;;4.32;;
30934;SDS011;51033;42.648;23.292;2023-06-01T11:13:23;5.53;;;4.57;;
30934;SDS011;51033;42.648;23.292;2023-06-01T11:23:54;8.45;;;5.20;;
30934;SDS011;51033;42.648;23.292;2023-06-01T11:26:28;5.28;;;4.22;;
30934;SDS011;51033;42.648;23.292;2023-06-01T11:32:04;7.50;;;4.75;;
30934;SDS011;51033;42.648;23.292;2023-06-01T11:37:02;8.50;;;3.85;;
30934;SDS011;51033;42.648;23.292;2023-06-01T11:39:28;5.03;;;3.92;;
30934;SDS011;51033;42.648;23.292;2023-06-01T11:44:38;5.60;;;4.43;;
30934;SDS011;51033;42.648;23.292;2023-06-01T11:47:05;4.43;;;3.25;;
30934;SDS011;51033;42.648;23.292;2023-06-01T11:49:41;6.43;;;3.08;;
30934;SDS011;51033;42.648;23.292;2023-06-01T11:52:19;5.65;;;3.17;;
30934;SDS011;51033;42.648;23.292;2023-06-01T11:54:45;4.38;;;3.08;;
30934;SDS011;51033;42.648;23.292;2023-06-01T11:57:12;3.45;;;3.08;;
30934;SDS011;51033;42.648;23.292;2023-06-01T11:59:38;5.05;;;3.65;;
30934;SDS011;51033;42.648;23.292;2023-06-01T12:02:19;6.75;;;4.00;;
30934;SDS011;51033;42.648;23.292;2023-06-01T12:07:44;6.57;;;4.88;;
30934;SDS011;51033;42.648;23.292;2023-06-01T12:10:13;7.10;;;4.30;;
30934;SDS011;51033;42.648;23.292;2023-06-01T12:12:41;5.50;;;4.47;;
30934;SDS011;51033;42.648;23.292;2023-06-01T12:15:11;7.45;;;4.57;;
30934;SDS011;51033;42.648;23.292;2023-06-01T12:23:00;7.38;;;4.68;;
30934;SDS011;51033;42.648;23.292;2023-06-01T12:25:28;5.03;;;3.83;;
30934;SDS011;51033;42.648;23.292;2023-06-01T12:28:06;4.82;;;4.30;;
30934;SDS011;51033;42.648;23.292;2023-06-01T12:30:33;9.98;;;3.80;;
30934;SDS011;51033;42.648;23.292;2023-06-01T12:32:59;5.15;;;4.13;;
30934;SDS011;51033;42.648;23.292;2023-06-01T12:35:25;7.03;;;4.00;;
30934;SDS011;51033;42.648;23.292;2023-06-01T12:38:03;5.68;;;4.00;;
30934;SDS011;51033;42.648;23.292;2023-06-01T12:40:29;5.32;;;3.88;;
30934;SDS011;51033;42.648;23.292;2023-06-01T12:42:55;6.15;;;4.35;;
30934;SDS011;51033;42.648;23.292;2023-06-01T12:45:20;8.93;;;3.80;;
30934;SDS011;51033;42.648;23.292;2023-06-01T12:47:46;5.32;;;4.00;;
30934;SDS011;51033;42.648;23.292;2023-06-01T12:50:11;4.70;;;4.00;;
30934;SDS011;51033;42.648;23.292;2023-06-01T12:52:39;5.18;;;4.13;;
30934;SDS011;51033;42.648;23.292;2023-06-01T12:55:05;4.55;;;3.47;;
30934;SDS011;51033;42.648;23.292;2023-06-01T12:57:31;4.28;;;3.45;;
30934;SDS011;51033;42.648;23.292;2023-06-01T12:59:57;4.63;;;3.83;;
30934;SDS011;51033;42.648;23.292;2023-06-01T13:02:24;4.72;;;3.83;;
30934;SDS011;51033;42.648;23.292;2023-06-01T13:04:51;6.78;;;4.50;;
30934;SDS011;51033;42.648;23.292;2023-06-01T13:07:18;4.30;;;3.90;;
30934;SDS011;51033;42.648;23.292;2023-06-01T13:09:44;6.07;;;3.75;;
30934;SDS011;51033;42.648;23.292;2023-06-01T13:12:09;3.50;;;2.80;;
30934;SDS011;51033;42.648;23.292;2023-06-01T13:14:35;5.43;;;2.92;;
30934;SDS011;51033;42.648;23.292;2023-06-01T13:17:01;2.28;;;1.70;;
30934;SDS011;51033;42.648;23.292;2023-06-01T13:19:28;1.95;;;1.40;;
30934;SDS011;51033;42.648;23.292;2023-06-01T13:21:54;2.47;;;1.38;;
30934;SDS011;51033;42.648;23.292;2023-06-01T13:24:19;1.58;;;1.10;;
30934;SDS011;51033;42.648;23.292;2023-06-01T13:26:45;2.58;;;1.38;;
30934;SDS011;51033;42.648;23.292;2023-06-01T13:29:10;2.70;;;1.10;;
30934;SDS011;51033;42.648;23.292;2023-06-01T13:31:35;3.17;;;1.30;;
30934;SDS011;51033;42.648;23.292;2023-06-01T13:34:02;1.65;;;1.20;;
30934;SDS011;51033;42.648;23.292;2023-06-01T13:36:28;1.40;;;1.10;;
30934;SDS011;51033;42.648;23.292;2023-06-01T13:38:54;3.58;;;1.35;;
30934;SDS011;51033;42.648;23.292;2023-06-01T13:41:20;2.10;;;1.15;;
30934;SDS011;51033;42.648;23.292;2023-06-01T13:43:46;1.70;;;1.00;;
30934;SDS011;51033;42.648;23.292;2023-06-01T13:46:12;3.17;;;1.67;;
30934;SDS011;51033;42.648;23.292;2023-06-01T13:48:38;1.23;;;1.10;;
30934;SDS011;51033;42.648;23.292;2023-06-01T13:51:04;1.60;;;1.15;;
30934;SDS011;51033;42.648;23.292;2023-06-01T13:53:30;2.17;;;1.42;;
30934;SDS011;51033;42.648;23.292;2023-06-01T13:55:55;1.77;;;1.40;;
30934;SDS011;51033;42.648;23.292;2023-06-01T13:58:21;1.73;;;1.63;;
30934;SDS011;51033;42.648;23.292;2023-06-01T14:00:47;6.80;;;2.13;;
30934;SDS011;51033;42.648;23.292;2023-06-01T14:03:15;2.30;;;2.10;;
30934;SDS011;51033;42.648;23.292;2023-06-01T14:05:41;2.83;;;1.90;;
30934;SDS011;51033;42.648;23.292;2023-06-01T14:08:06;4.13;;;2.42;;
30934;SDS011;51033;42.648;23.292;2023-06-01T14:10:32;5.35;;;3.08;;
30934;SDS011;51033;42.648;23.292;2023-06-01T14:12:59;4.40;;;2.25;;
30934;SDS011;51033;42.648;23.292;2023-06-01T14:15:25;2.80;;;2.17;;
30934;SDS011;51033;42.648;23.292;2023-06-01T14:17:50;5.35;;;2.58;;
30934;SDS011;51033;42.648;23.292;2023-06-01T14:20:16;2.88;;;2.58;;
30934;SDS011;51033;42.648;23.292;2023-06-01T14:22:41;4.30;;;2.35;;
30934;SDS011;51033;42.648;23.292;2023-06-01T14:25:07;2.63;;;2.40;;
30934;SDS011;51033;42.648;23.292;2023-06-01T14:27:33;3.60;;;1.98;;
30934;SDS011;51033;42.648;23.292;2023-06-01T14:29:58;4.57;;;2.53;;
30934;SDS011;51033;42.648;23.292;2023-06-01T14:32:27;4.45;;;2.88;;
30934;SDS011;51033;42.648;23.292;2023-06-01T14:34:53;5.68;;;2.83;;
30934;SDS011;51033;42.648;23.292;2023-06-01T14:37:18;4.47;;;3.15;;
30934;SDS011;51033;42.648;23.292;2023-06-01T14:39:43;4.05;;;3.55;;
30934;SDS011;51033;42.648;23.292;2023-06-01T14:42:10;3.85;;;3.03;;
30934;SDS011;51033;42.648;23.292;2023-06-01T14:44:36;6.10;;;4.43;;
30934;SDS011;51033;42.648;23.292;2023-06-01T14:47:04;5.38;;;4.00;;
30934;SDS011;51033;42.648;23.292;2023-06-01T14:49:30;4.38;;;3.70;;
30934;SDS011;51033;42.648;23.292;2023-06-01T14:51:55;6.35;;;4.90;;
30934;SDS011;51033;42.648;23.292;2023-06-01T14:54:21;7.10;;;4.78;;
30934;SDS011;51033;42.648;23.292;2023-06-01T14:56:46;8.00;;;4.95;;
30934;SDS011;51033;42.648;23.292;2023-06-01T14:59:12;7.65;;;5.28;;
30934;SDS011;51033;42.648;23.292;2023-06-01T15:01:37;9.02;;;5.57;;
30934;SDS011;51033;42.648;23.292;2023-06-01T15:04:05;8.05;;;5.40;;
30934;SDS011;51033;42.648;23.292;2023-06-01T15:06:31;7.68;;;5.40;;
30934;SDS011;51033;42.648;23.292;2023-06-01T15:08:56;7.43;;;5.40;;
30934;SDS011;51033;42.648;23.292;2023-06-01T15:11:22;12.95;;;6.38;;
30934;SDS011;51033;42.648;23.292;2023-06-01T15:13:47;10.15;;;5.97;;
30934;SDS011;51033;42.648;23.292;2023-06-01T15:16:14;13.30;;;9.90;;
30934;SDS011;51033;42.648;23.292;2023-06-01T15:18:42;20.67;;;13.60;;
30934;SDS011;51033;42.648;23.292;2023-06-01T15:21:08;16.35;;;13.52;;
30934;SDS011;51033;42.648;23.292;2023-06-01T15:23:33;17.02;;;12.40;;
30934;SDS011;51033;42.648;23.292;2023-06-01T15:25:59;17.05;;;11.27;;
30934;SDS011;51033;42.648;23.292;2023-06-01T15:28:24;10.05;;;8.18;;
30934;SDS011;51033;42.648;23.292;2023-06-01T15:30:50;10.13;;;6.72;;
30934;SDS011;51033;42.648;23.292;2023-06-01T15:33:15;9.05;;;5.97;;
30934;SDS011;51033;42.648;23.292;2023-06-01T15:35:41;8.70;;;5.70;;
30934;SDS011;51033;42.648;23.292;2023-06-01T15:38:06;6.43;;;5.65;;
30934;SDS011;51033;42.648;23.292;2023-06-01T15:40:32;7.65;;;5.30;;
30934;SDS011;51033;42.648;23.292;2023-06-01T15:42:57;8.18;;;4.78;;
30934;SDS011;51033;42.648;23.292;2023-06-01T15:45:22;6.53;;;5.00;;
30934;SDS011;51033;42.648;23.292;2023-06-01T15:47:48;7.15;;;5.13;;
30934;SDS011;51033;42.648;23.292;2023-06-01T15:50:14;8.65;;;5.65;;
30934;SDS011;51033;42.648;23.292;2023-06-01T15:52:39;7.75;;;4.50;;
30934;SDS011;51033;42.648;23.292;2023-06-01T15:55:04;6.13;;;5.10;;
30934;SDS011;51033;42.648;23.292;2023-06-01T15:57:31;8.85;;;5.22;;
30934;SDS011;51033;42.648;23.292;2023-06-01T15:59:56;9.20;;;5.72;;
30934;SDS011;51033;42.648;23.292;2023-06-01T16:02:22;9.15;;;5.70;;
30934;SDS011;51033;42.648;23.292;2023-06-01T16:04:47;6.57;;;5.70;;
30934;SDS011;51033;42.648;23.292;2023-06-01T16:07:12;10.98;;;6.85;;
30934;SDS011;51033;42.648;23.292;2023-06-01T16:09:38;8.23;;;6.18;;
30934;SDS011;51033;42.648;23.292;2023-06-01T16:12:03;8.20;;;7.18;;
30934;SDS011;51033;42.648;23.292;2023-06-01T16:14:29;8.93;;;6.55;;
30934;SDS011;51033;42.648;23.292;2023-06-01T16:16:54;12.38;;;6.65;;
30934;SDS011;51033;42.648;23.292;2023-06-01T16:19:20;10.02;;;6.80;;
30934;SDS011;51033;42.648;23.292;2023-06-01T16:21:45;9.23;;;6.13;;
30934;SDS011;51033;42.648;23.292;2023-06-01T16:24:10;7.38;;;6.45;;
30934;SDS011;51033;42.648;23.292;2023-06-01T16:26:36;7.20;;;6.00;;
30934;SDS011;51033;42.648;23.292;2023-06-01T16:29:01;7.88;;;5.68;;
30934;SDS011;51033;42.648;23.292;2023-06-01T16:31:27;8.65;;;5.65;;
30934;SDS011;51033;42.648;23.292;2023-06-01T16:33:52;8.88;;;5.88;;
30934;SDS011;51033;42.648;23.292;2023-06-01T16:36:18;8.13;;;6.57;;
30934;SDS011;51033;42.648;23.292;2023-06-01T16:38:43;9.60;;;5.38;;
30934;SDS011;51033;42.648;23.292;2023-06-01T16:41:08;6.78;;;6.05;;
30934;SDS011;51033;42.648;23.292;2023-06-01T16:43:34;8.52;;;6.82;;
30934;SDS011;51033;42.648;23.292;2023-06-01T16:45:59;8.93;;;7.18;;
30934;SDS011;51033;42.648;23.292;2023-06-01T16:48:25;8.93;;;6.32;;
30934;SDS011;51033;42.648;23.292;2023-06-01T16:50:50;11.98;;;6.88;;
30934;SDS011;51033;42.648;23.292;2023-06-01T16:53:16;9.85;;;6.10;;
30934;SDS011;51033;42.648;23.292;2023-06-01T16:55:41;8.98;;;6.03;;
30934;SDS011;51033;42.648;23.292;2023-06-01T16:58:07;9.45;;;5.40;;
30934;SDS011;51033;42.648;23.292;2023-06-01T17:00:33;8.73;;;6.13;;
30934;SDS011;51033;42.648;23.292;2023-06-01T17:02:59;8.25;;;5.78;;
30934;SDS011;51033;42.648;23.292;2023-06-01T17:05:24;6.82;;;5.55;;
30934;SDS011;51033;42.648;23.292;2023-06-01T17:07:52;7.07;;;4.60;;
30934;SDS011;51033;42.648;23.292;2023-06-01T17:10:18;9.82;;;6.10;;
30934;SDS011;51033;42.648;23.292;2023-06-01T17:12:44;10.07;;;5.05;;
30934;SDS011;51033;42.648;23.292;2023-06-01T17:15:10;8.88;;;5.50;;